Terminal Aerodrome Forecast
Issued by NWS

Home | Current Version | Previous Version | Text Only | Print | Product List | Glossary On
Versions: 1 2 3 4 5 6 7 8 9 10 11 12 13 14 15 16 17 18 19 20 21 22 23 24
579
FTUS46 KHNX 092320
TAFVIS
TAF
KVIS 092320Z 1000/1024 00000KT P6SM OVC030
     FM100700 09008KT P6SM SCT025 OVC050
      TEMPO 1009/1013 4SM -RA BR OVC020
     FM101300 VRB04KT 4SM -SHRA BR OVC020=

USA.gov is the U.S. government's official web portal to all federal, state and local government web resources and services.